createdAt,value
2023-01-17T04:47:51.091Z,98.20
2023-01-17T04:50:18.269Z,98.30
2023-01-17T04:52:45.234Z,98.40
2023-01-17T04:55:12.124Z,98.30
2023-01-17T04:57:39.083Z,98.40
2023-01-17T05:00:06.413Z,98.20
2023-01-17T05:02:33.389Z,98.30
2023-01-17T05:05:00.395Z,97.90
2023-01-17T05:07:27.348Z,98.00
2023-01-17T05:09:54.264Z,98.20
2023-01-17T05:12:21.161Z,98.00
2023-01-17T05:14:48.063Z,98.30
2023-01-17T05:17:14.941Z,98.50
2023-01-17T05:19:41.821Z,98.60
2023-01-17T05:22:15.082Z,98.00
2023-01-17T05:24:42.720Z,97.80
2023-01-17T05:27:10.156Z,97.60
2023-01-17T05:29:37.064Z,97.90
2023-01-17T05:32:04.546Z,98.10
2023-01-17T05:34:31.761Z,97.90
2023-01-17T05:36:58.712Z,97.50
2023-01-17T05:39:26.360Z,97.30
2023-01-17T05:41:53.421Z,97.70
2023-01-17T05:44:20.399Z,98.00
2023-01-17T05:46:47.338Z,97.60
2023-01-17T05:49:14.258Z,97.60
2023-01-17T05:51:41.234Z,97.90
2023-01-17T05:54:08.183Z,97.90
2023-01-17T05:56:35.204Z,97.40
2023-01-17T05:59:02.137Z,97.30
2023-01-17T06:01:29.086Z,97.30
2023-01-17T06:03:56.055Z,97.20
2023-01-17T06:06:22.974Z,97.50
2023-01-17T06:08:49.853Z,97.60
2023-01-17T06:11:18.452Z,97.30
2023-01-17T06:13:45.580Z,97.00
2023-01-17T06:16:12.502Z,97.00
2023-01-17T06:18:39.412Z,97.10
2023-01-17T06:21:06.396Z,97.20
2023-01-17T06:23:33.398Z,97.10
2023-01-17T06:26:01.863Z,97.20
2023-01-17T06:28:28.879Z,97.70
2023-01-17T06:30:55.926Z,97.50
2023-01-17T06:33:23.247Z,97.10
2023-01-17T06:35:50.686Z,97.00
2023-01-17T06:38:17.663Z,97.20
2023-01-17T06:40:44.550Z,97.20
2023-01-17T06:43:11.437Z,97.10
2023-01-17T06:45:39.179Z,96.90
2023-01-17T06:48:06.349Z,96.20
2023-01-17T06:50:33.506Z,96.70
2023-01-17T06:53:04.390Z,97.50
2023-01-17T06:55:33.530Z,97.50
2023-01-17T06:58:00.612Z,97.30
2023-01-17T07:00:27.678Z,97.50
2023-01-17T07:02:55.142Z,97.80
2023-01-17T07:05:22.252Z,97.80
2023-01-17T07:07:49.233Z,98.10
2023-01-17T07:10:16.296Z,98.10
2023-01-17T07:12:43.309Z,98.30
2023-01-17T07:15:10.592Z,98.40
2023-01-17T07:17:37.551Z,98.20
2023-01-17T07:20:04.784Z,98.50
2023-01-17T07:22:31.774Z,98.60
2023-01-17T07:24:58.904Z,98.50
2023-01-17T07:27:27.596Z,98.60
2023-01-17T07:29:54.571Z,98.40
2023-01-17T07:32:21.564Z,98.80
2023-01-17T07:34:48.467Z,98.90
2023-01-17T07:37:15.602Z,98.80
2023-01-17T07:39:42.624Z,98.70
2023-01-17T07:42:09.582Z,99.00
2023-01-17T07:44:36.526Z,98.80
2023-01-17T07:47:04.245Z,98.70
2023-01-17T07:49:31.233Z,98.70
2023-01-17T07:51:58.186Z,98.70
2023-01-17T07:54:25.154Z,98.80
2023-01-17T07:56:52.067Z,98.70
2023-01-17T07:59:19.098Z,98.90
2023-01-17T08:01:46.162Z,98.90
2023-01-17T08:04:14.020Z,98.60
2023-01-17T08:06:42.534Z,98.80
2023-01-17T08:09:09.455Z,98.70
2023-01-17T08:11:36.475Z,98.70
2023-01-17T08:14:03.377Z,99.10
2023-01-17T08:16:30.435Z,99.20
2023-01-17T08:18:57.450Z,99.20
2023-01-17T08:21:24.410Z,99.20
2023-01-17T08:23:52.108Z,99.10
2023-01-17T08:26:22.883Z,99.00
2023-01-17T08:28:54.895Z,99.10
2023-01-17T08:31:21.961Z,99.00
2023-01-17T08:33:48.874Z,99.00
2023-01-17T08:36:15.864Z,99.00
2023-01-17T08:38:42.878Z,99.10
2023-01-17T08:41:09.914Z,99.30
2023-01-17T08:43:36.820Z,99.40
2023-01-17T08:46:05.252Z,99.20
2023-01-17T08:48:32.238Z,99.30
2023-01-17T08:51:02.332Z,99.20
2023-01-17T08:53:29.312Z,99.00
2023-01-17T08:55:59.743Z,99.10
2023-01-17T08:58:30.274Z,98.90
2023-01-17T09:01:04.723Z,99.20
2023-01-17T09:03:32.187Z,99.10
2023-01-17T09:06:06.743Z,99.20
2023-01-17T09:08:33.917Z,99.30
2023-01-17T09:11:04.844Z,99.30
2023-01-17T09:13:31.796Z,99.30
2023-01-17T09:15:59.617Z,99.40
2023-01-17T09:18:27.634Z,99.50
2023-01-17T09:20:55.199Z,99.30
2023-01-17T09:23:22.720Z,99.40
2023-01-17T09:25:53.433Z,99.30
2023-01-17T09:28:20.931Z,99.40
2023-01-17T09:30:48.241Z,99.40
2023-01-17T09:33:15.422Z,99.50
2023-01-17T09:35:42.314Z,99.40
2023-01-17T09:38:09.253Z,99.30
2023-01-17T09:40:37.253Z,99.20
2023-01-17T09:43:07.014Z,99.40
2023-01-17T09:45:35.229Z,99.70
2023-01-17T09:48:07.633Z,99.20
2023-01-17T09:51:03.751Z,99.80
2023-01-17T09:53:34.031Z,99.60
2023-01-17T09:56:04.497Z,99.50
2023-01-17T09:58:37.237Z,99.50
2023-01-17T10:01:19.072Z,99.40
2023-01-17T10:03:51.683Z,99.60
2023-01-17T10:06:30.685Z,99.20
2023-01-17T10:09:00.403Z,99.10
2023-01-17T10:11:34.780Z,99.40
2023-01-17T10:14:01.709Z,99.40
2023-01-17T10:16:46.832Z,99.00
2023-01-17T10:19:23.834Z,98.90
2023-01-17T10:22:02.025Z,99.10
2023-01-17T10:24:55.174Z,99.50
2023-01-17T10:27:24.969Z,99.40
2023-01-17T10:29:51.956Z,99.20
2023-01-17T10:32:20.059Z,99.40
2023-01-17T10:34:49.276Z,99.50
2023-01-17T10:37:16.273Z,99.40
2023-01-17T10:39:44.751Z,99.20
2023-01-17T10:42:26.754Z,99.20
2023-01-17T10:45:03.994Z,99.60
2023-01-17T10:47:33.045Z,99.40
2023-01-17T10:50:03.466Z,99.20
2023-01-17T10:52:39.729Z,99.60
2023-01-17T10:55:06.630Z,99.60
2023-01-17T10:57:40.823Z,99.80
2023-01-17T11:00:30.899Z,99.90
2023-01-17T11:02:58.438Z,99.70
2023-01-17T11:05:26.748Z,99.90
2023-01-17T11:07:57.254Z,99.90
2023-01-17T11:10:41.502Z,99.90
2023-01-17T11:13:17.294Z,99.90
2023-01-17T11:15:47.304Z,99.90
2023-01-17T11:18:15.793Z,99.80
2023-01-17T11:20:43.615Z,99.80
2023-01-17T11:23:20.882Z,99.90
2023-01-17T11:25:52.650Z,99.70
2023-01-17T11:28:21.470Z,99.80
2023-01-17T11:30:51.121Z,99.20
2023-01-17T11:33:30.853Z,98.80
2023-01-17T11:35:58.568Z,98.10
2023-01-17T11:38:26.013Z,98.70
2023-01-17T11:41:15.795Z,98.20
2023-01-17T11:43:53.068Z,98.10
2023-01-17T11:46:23.747Z,98.40
2023-01-17T11:48:52.673Z,97.80
2023-01-17T11:51:22.610Z,98.10
2023-01-17T11:53:49.910Z,97.70
2023-01-17T11:56:30.324Z,98.30
2023-01-17T11:59:21.355Z,98.20
2023-01-17T12:01:55.810Z,98.10
2023-01-17T12:04:25.083Z,98.00
2023-01-17T12:07:04.016Z,98.30
2023-01-17T12:09:42.953Z,98.20
2023-01-17T12:12:47.587Z,97.50
2023-01-17T12:15:23.562Z,97.60
2023-01-17T12:18:15.050Z,97.30
2023-01-17T12:20:51.494Z,98.00
2023-01-17T12:23:24.294Z,97.80
2023-01-17T12:26:00.124Z,97.50
2023-01-17T12:28:46.089Z,97.80
2023-01-17T12:31:18.874Z,97.70
2023-01-17T12:34:08.523Z,97.40
2023-01-17T12:36:49.341Z,97.40
2023-01-17T12:39:18.494Z,96.90
2023-01-17T12:41:53.206Z,97.30
2023-01-17T12:44:21.654Z,96.80
2023-01-17T12:46:57.625Z,97.30
2023-01-17T12:49:43.155Z,97.20
2023-01-17T12:52:18.299Z,97.60
2023-01-17T12:54:47.482Z,96.90
2023-01-17T12:57:26.013Z,96.70
2023-01-17T13:00:07.624Z,97.30
2023-01-17T13:02:37.406Z,97.30
2023-01-17T13:05:08.838Z,97.30
2023-01-17T13:07:53.172Z,97.50
2023-01-17T13:10:38.823Z,97.30
2023-01-17T13:13:16.158Z,97.70
2023-01-17T13:15:43.299Z,96.80
2023-01-17T13:18:14.648Z,97.60
2023-01-17T13:20:44.525Z,97.30
2023-01-17T13:23:29.976Z,97.20
2023-01-17T13:25:58.194Z,97.30
2023-01-17T13:28:34.093Z,97.30
2023-01-17T13:31:19.781Z,97.20
2023-01-17T13:33:57.833Z,96.90
2023-01-17T13:36:44.130Z,97.30
2023-01-17T13:39:27.205Z,97.40
2023-01-17T13:42:00.099Z,97.30
2023-01-17T13:44:28.103Z,96.80
2023-01-17T13:47:07.981Z,97.10
2023-01-17T13:49:40.700Z,97.20
2023-01-17T13:52:10.989Z,97.10
2023-01-17T13:54:47.973Z,97.20
2023-01-17T13:57:29.751Z,96.80
2023-01-17T13:59:57.534Z,97.30
2023-01-17T14:02:33.297Z,97.30
2023-01-17T14:05:17.441Z,97.40
2023-01-17T14:07:58.617Z,96.80
2023-01-17T14:10:28.413Z,97.10
2023-01-17T14:12:55.632Z,97.00
2023-01-17T14:15:27.050Z,97.00
2023-01-17T14:17:59.118Z,97.20
2023-01-17T14:20:26.015Z,97.40
2023-01-17T14:22:55.487Z,97.40
2023-01-17T14:25:24.518Z,97.00
2023-01-17T14:27:53.260Z,96.50
2023-01-17T14:30:20.112Z,97.30
2023-01-17T14:32:59.103Z,96.70
2023-01-17T14:35:30.502Z,96.60
2023-01-17T14:38:05.431Z,96.00
2023-01-17T14:40:33.871Z,95.70
2023-01-17T14:43:06.664Z,96.30
2023-01-17T14:45:34.645Z,96.20
2023-01-17T14:48:02.813Z,96.50
2023-01-17T14:50:34.906Z,96.50
2023-01-17T14:53:08.355Z,97.20
2023-01-17T14:55:35.597Z,96.90
2023-01-17T14:58:02.594Z,98.00
2023-01-17T15:00:30.008Z,98.10
2023-01-17T15:02:59.211Z,97.70
2023-01-17T15:05:27.646Z,98.00
2023-01-17T15:07:55.369Z,98.00
2023-01-17T15:10:30.299Z,98.20
2023-01-17T15:12:58.405Z,98.60
2023-01-17T15:15:38.136Z,99.10
2023-01-17T15:18:14.077Z,99.20
2023-01-17T15:20:41.711Z,99.20
2023-01-17T15:23:15.112Z,99.40
2023-01-17T15:25:42.052Z,99.10
2023-01-17T15:28:12.490Z,99.30
2023-01-17T15:30:59.800Z,99.30
2023-01-17T15:33:26.839Z,99.40
2023-01-17T15:36:00.447Z,99.70
2023-01-17T15:38:28.885Z,99.60
2023-01-17T15:40:55.976Z,99.70
2023-01-17T15:43:31.624Z,99.90
2023-01-17T15:45:58.876Z,99.90
2023-01-17T15:48:33.380Z,99.80
2023-01-17T15:51:00.349Z,99.80
2023-01-17T15:53:29.624Z,99.80
2023-01-17T15:55:56.810Z,99.80
2023-01-17T15:58:25.126Z,99.90
2023-01-17T16:00:52.141Z,99.90
2023-01-17T16:03:25.004Z,99.80
2023-01-17T16:05:52.752Z,99.90
2023-01-17T16:08:27.426Z,99.90
2023-01-17T16:10:55.356Z,99.90
2023-01-17T16:13:22.417Z,99.90
2023-01-17T16:15:49.595Z,99.90
2023-01-17T16:18:17.827Z,99.90
2023-01-17T16:20:47.678Z,99.70
2023-01-17T16:23:14.666Z,99.80
2023-01-17T16:25:41.612Z,99.80
2023-01-17T16:28:08.519Z,99.80
2023-01-17T16:30:36.047Z,99.70
2023-01-17T16:33:03.316Z,99.60
2023-01-17T16:35:31.358Z,99.60
2023-01-17T16:38:05.847Z,99.70
2023-01-17T16:40:33.920Z,99.60
2023-01-17T16:43:01.120Z,99.90
2023-01-17T16:45:28.191Z,99.70
2023-01-17T16:47:55.274Z,99.80
2023-01-17T16:50:23.277Z,99.90
2023-01-17T16:52:50.830Z,99.90
2023-01-17T16:55:19.255Z,99.60
2023-01-17T16:57:46.199Z,99.50
2023-01-17T17:00:13.462Z,99.60
2023-01-17T17:02:40.839Z,99.50
2023-01-17T17:05:08.636Z,99.80
2023-01-17T17:07:36.683Z,99.50
2023-01-17T17:10:03.845Z,99.60
2023-01-17T17:12:32.058Z,99.60
2023-01-17T17:14:58.982Z,99.90
2023-01-17T17:17:25.987Z,99.60
2023-01-17T17:19:52.924Z,99.90
2023-01-17T17:22:19.897Z,99.80
2023-01-17T17:24:46.867Z,99.90
2023-01-17T17:27:13.893Z,99.90
2023-01-17T17:29:41.159Z,99.90
2023-01-17T17:32:11.431Z,99.80
2023-01-17T17:34:38.690Z,99.60
2023-01-17T17:37:05.642Z,99.70
2023-01-17T17:39:32.547Z,99.90
2023-01-17T17:41:59.501Z,99.90
2023-01-17T17:44:27.406Z,99.90
2023-01-17T17:46:54.437Z,99.90
2023-01-17T17:49:22.676Z,99.90
2023-01-17T17:51:49.655Z,99.80
2023-01-17T17:54:17.291Z,99.80
2023-01-17T17:56:48.272Z,99.70
2023-01-17T17:59:18.158Z,99.80
2023-01-17T18:01:45.381Z,99.90
2023-01-17T18:04:12.353Z,99.90
2023-01-17T18:06:39.892Z,99.80
2023-01-17T18:09:07.968Z,99.90
2023-01-17T18:11:35.366Z,99.90
2023-01-17T18:14:03.059Z,99.90
2023-01-17T18:16:37.370Z,99.80
2023-01-17T18:19:05.136Z,99.90
2023-01-17T18:21:33.335Z,99.90
2023-01-17T18:24:04.765Z,99.90
2023-01-17T18:26:32.982Z,99.90
2023-01-17T18:29:00.338Z,99.90
2023-01-17T18:31:27.850Z,99.70
2023-01-17T18:33:55.895Z,99.60
2023-01-17T18:36:23.493Z,99.80
2023-01-17T18:38:51.725Z,99.80
2023-01-17T18:41:20.365Z,99.80
2023-01-17T18:43:50.095Z,99.70
2023-01-17T18:46:17.752Z,99.80
2023-01-17T18:48:45.167Z,99.90
2023-01-17T18:51:13.264Z,99.70
2023-01-17T18:53:41.285Z,99.90
2023-01-17T18:56:09.827Z,99.90
2023-01-17T18:58:38.701Z,99.90
2023-01-17T19:01:07.241Z,99.90
2023-01-17T19:03:34.462Z,99.80
2023-01-17T19:06:01.648Z,99.90
2023-01-17T19:08:29.487Z,99.70
2023-01-17T19:10:56.495Z,99.80
2023-01-17T19:13:23.441Z,99.60
2023-01-17T19:15:50.649Z,99.90
2023-01-17T19:18:17.901Z,99.70
2023-01-17T19:20:45.050Z,99.60
2023-01-17T19:23:12.019Z,99.50
2023-01-17T19:25:38.913Z,99.70
2023-01-17T19:28:05.884Z,99.90
2023-01-17T19:30:34.252Z,99.90
2023-01-17T19:33:01.300Z,99.90
2023-01-17T19:35:28.731Z,99.80
2023-01-17T19:37:56.021Z,99.70
2023-01-17T19:40:23.137Z,99.80
2023-01-17T19:42:50.068Z,99.70
2023-01-17T19:45:17.087Z,99.80
2023-01-17T19:47:44.254Z,99.40
2023-01-17T19:50:12.124Z,99.50
2023-01-17T19:52:39.740Z,99.20
2023-01-17T19:55:12.476Z,99.30
2023-01-17T19:57:40.430Z,99.20
2023-01-17T20:00:13.164Z,99.20
2023-01-17T20:03:00.457Z,99.10
2023-01-17T20:05:27.639Z,99.00
2023-01-17T20:07:54.940Z,99.00
2023-01-17T20:10:22.084Z,98.90
2023-01-17T20:12:48.979Z,98.90
2023-01-17T20:15:15.977Z,99.00
2023-01-17T20:17:42.888Z,99.00
2023-01-17T20:20:12.998Z,99.00
2023-01-17T20:22:43.502Z,99.20
2023-01-17T20:25:10.724Z,99.30
2023-01-17T20:27:38.482Z,99.60
2023-01-17T20:30:19.200Z,99.50
2023-01-17T20:32:47.802Z,99.50
2023-01-17T20:35:15.491Z,99.60
2023-01-17T20:37:42.464Z,99.60
2023-01-17T20:40:09.801Z,99.50
2023-01-17T20:42:36.915Z,99.70
2023-01-17T20:45:04.225Z,99.50
2023-01-17T20:47:31.135Z,99.40
2023-01-17T20:49:58.836Z,99.40
2023-01-17T20:52:25.799Z,99.60
2023-01-17T20:54:52.707Z,99.60
2023-01-17T20:57:19.659Z,99.70
2023-01-17T20:59:48.372Z,99.90
2023-01-17T21:02:15.426Z,99.90
2023-01-17T21:04:42.475Z,99.90
2023-01-17T21:07:09.435Z,99.80
2023-01-17T21:09:36.525Z,99.90
2023-01-17T21:12:03.481Z,99.90
2023-01-17T21:14:30.547Z,99.90
2023-01-17T21:16:57.546Z,99.80
2023-01-17T21:19:24.517Z,99.70
2023-01-17T21:21:51.654Z,99.90
2023-01-17T21:24:19.528Z,99.70
2023-01-17T21:26:46.840Z,99.80
2023-01-17T21:29:15.799Z,99.70
2023-01-17T21:31:42.832Z,99.60
2023-01-17T21:34:10.792Z,99.40
2023-01-17T21:36:38.690Z,99.40
2023-01-17T21:39:16.431Z,99.40
2023-01-17T21:41:45.625Z,99.50
2023-01-17T21:44:16.616Z,99.50
2023-01-17T21:46:43.552Z,99.60
2023-01-17T21:49:11.772Z,99.60
2023-01-17T21:51:54.279Z,99.70
2023-01-17T21:54:44.978Z,99.60
2023-01-17T21:57:31.488Z,99.90
2023-01-17T21:59:58.443Z,99.90
2023-01-17T22:02:25.432Z,99.80
2023-01-17T22:04:54.375Z,99.80
2023-01-17T22:07:21.355Z,99.60
2023-01-17T22:09:48.312Z,99.60
2023-01-17T22:12:15.237Z,99.40
2023-01-17T22:14:42.257Z,99.50
2023-01-17T22:17:09.681Z,99.40
2023-01-17T22:19:36.641Z,99.40
2023-01-17T22:22:03.871Z,99.40
2023-01-17T22:24:30.885Z,99.60
2023-01-17T22:26:57.816Z,99.40
2023-01-17T22:29:24.839Z,99.50
2023-01-17T22:31:51.729Z,99.60
2023-01-17T22:34:18.846Z,99.50
2023-01-17T22:36:45.765Z,99.40
2023-01-17T22:39:12.732Z,99.40
2023-01-17T22:41:39.694Z,99.50
2023-01-17T22:44:07.564Z,99.50
2023-01-17T22:46:37.062Z,99.60
2023-01-17T22:49:04.537Z,99.80
2023-01-17T22:51:31.463Z,99.50
2023-01-17T22:53:59.260Z,99.70
2023-01-17T22:56:27.627Z,99.80
2023-01-17T22:58:54.707Z,99.50
2023-01-17T23:01:21.688Z,99.60
2023-01-17T23:03:52.995Z,99.60
2023-01-17T23:06:21.808Z,99.40
2023-01-17T23:08:50.154Z,99.50
2023-01-17T23:11:41.743Z,99.40
2023-01-17T23:14:09.471Z,99.50
2023-01-17T23:16:55.427Z,99.50
2023-01-17T23:19:22.817Z,99.80
2023-01-17T23:22:09.344Z,99.60
2023-01-17T23:24:39.492Z,99.70
2023-01-17T23:27:24.951Z,99.70
2023-01-17T23:29:51.950Z,99.80
2023-01-17T23:32:18.857Z,99.60
2023-01-17T23:34:47.685Z,99.60
2023-01-17T23:37:15.033Z,99.70
2023-01-17T23:39:41.998Z,99.70
2023-01-17T23:42:27.192Z,99.60
2023-01-17T23:44:54.134Z,99.50
2023-01-17T23:47:21.081Z,99.60
2023-01-17T23:49:50.879Z,99.70
2023-01-17T23:52:17.786Z,99.60
2023-01-17T23:54:44.722Z,99.50
2023-01-17T23:57:11.696Z,99.50
2023-01-17T23:59:38.676Z,99.60
